Time;durP1;ratioP1;P1;durP2;ratioP2;P2;SDS_P1;SDS_P2;PMS_P1;PMS_P2;Temp;Humidity;BMP_temperature;BMP_pressure;BME280_temperature;BME280_humidity;BME280_pressure;Samples;Min_cycle;Max_cycle;Signal;HPM_P1;HPM_P2
2021/04/02 00:01:37;;;;;;;2.78;1.70;;;7.40;1.00;;;;;;5026948;28;21080;-80
2021/04/02 00:04:03;;;;;;;2.33;2.00;;;7.30;1.00;;;;;;5019710;28;20280;-78
2021/04/02 00:06:30;;;;;;;4.18;1.63;;;7.30;1.00;;;;;;5026420;28;20346;-80
2021/04/02 00:08:56;;;;;;;2.75;1.95;;;7.30;1.00;;;;;;5030290;28;21137;-80
2021/04/02 00:11:22;;;;;;;4.65;1.92;;;7.20;1.00;;;;;;5015292;28;20225;-78
2021/04/02 00:13:49;;;;;;;3.95;2.20;;;7.20;1.00;;;;;;5020271;28;20243;-80
2021/04/02 00:16:17;;;;;;;5.00;2.97;;;7.20;1.00;;;;;;5025710;28;23328;-78
2021/04/02 00:18:43;;;;;;;2.92;2.42;;;7.30;1.00;;;;;;5020860;28;20230;-79
2021/04/02 00:21:13;;;;;;;4.85;2.67;;;7.30;1.00;;;;;;5023697;28;20388;-80
2021/04/02 00:23:40;;;;;;;3.63;2.80;;;7.30;1.00;;;;;;5019413;28;20228;-78
2021/04/02 00:26:07;;;;;;;2.75;1.95;;;7.30;1.00;;;;;;5036950;28;20222;-79
2021/04/02 00:28:34;;;;;;;2.35;2.00;;;7.30;1.00;;;;;;5025611;28;21057;-81
2021/04/02 00:31:02;;;;;;;4.00;2.10;;;7.30;1.00;;;;;;5037103;28;20230;-79
2021/04/02 00:33:30;;;;;;;2.78;1.85;;;7.30;1.00;;;;;;5020589;28;20281;-80
2021/04/02 00:35:56;;;;;;;3.08;1.75;;;7.40;1.00;;;;;;5031542;28;20226;-79
2021/04/02 00:38:23;;;;;;;2.38;1.80;;;7.30;1.00;;;;;;5022141;28;20229;-80
2021/04/02 00:40:52;;;;;;;1.90;1.70;;;7.30;1.00;;;;;;5035202;28;20237;-80
2021/04/02 00:43:21;;;;;;;3.95;2.05;;;7.30;1.00;;;;;;5024156;28;21322;-79
2021/04/02 00:45:48;;;;;;;3.65;2.03;;;7.30;1.00;;;;;;5031208;28;20256;-80
2021/04/02 00:48:15;;;;;;;4.22;1.90;;;7.30;1.00;;;;;;5033406;28;20289;-78
2021/04/02 00:50:49;;;;;;;2.20;1.98;;;7.30;1.00;;;;;;5029259;28;20802;-81
2021/04/02 00:53:17;;;;;;;1.50;1.40;;;7.30;1.00;;;;;;5036745;28;20253;-79
2021/04/02 00:55:44;;;;;;;4.63;2.10;;;7.30;1.00;;;;;;5018260;28;20716;-82
2021/04/02 00:58:13;;;;;;;2.15;1.95;;;7.20;1.00;;;;;;5023992;28;20240;-79
2021/04/02 01:00:40;;;;;;;1.95;1.52;;;7.10;1.00;;;;;;5032287;27;20313;-78
2021/04/02 01:03:06;;;;;;;2.53;1.90;;;7.00;1.00;;;;;;5040442;28;20305;-79
2021/04/02 01:05:36;;;;;;;4.30;2.25;;;6.90;1.00;;;;;;5022556;28;20787;-79
2021/04/02 01:08:05;;;;;;;3.33;2.65;;;6.90;1.00;;;;;;5024350;28;20229;-80
2021/04/02 01:10:33;;;;;;;2.35;1.67;;;7.00;1.00;;;;;;5018236;28;20230;-78
2021/04/02 01:13:00;;;;;;;3.88;2.20;;;7.00;1.00;;;;;;5023079;28;20340;-78
2021/04/02 01:15:32;;;;;;;2.15;1.95;;;7.00;1.00;;;;;;5017490;28;20317;-80
2021/04/02 01:18:04;;;;;;;3.60;1.50;;;7.00;1.00;;;;;;5029520;28;20292;-82
2021/04/02 01:20:34;;;;;;;3.80;1.85;;;7.10;1.00;;;;;;5015354;28;20233;-81
2021/04/02 01:23:07;;;;;;;3.67;2.10;;;7.00;1.00;;;;;;5025728;28;20223;-79
2021/04/02 01:25:46;;;;;;;2.25;1.83;;;7.00;1.00;;;;;;5039937;28;20791;-80
2021/04/02 01:29:03;;;;;;;3.22;2.03;;;6.90;1.00;;;;;;5028182;28;20227;-80
2021/04/02 01:31:31;;;;;;;3.45;1.88;;;6.90;1.00;;;;;;4949283;28;20246;-79
2021/04/02 01:33:59;;;;;;;4.53;2.08;;;6.90;1.00;;;;;;5020122;28;20230;-81
2021/04/02 01:36:26;;;;;;;3.70;2.10;;;6.90;1.00;;;;;;5032335;28;20221;-81
2021/04/02 01:38:54;;;;;;;3.05;2.72;;;6.90;1.00;;;;;;5046358;28;20213;-79
2021/04/02 01:41:24;;;;;;;3.47;2.22;;;6.80;1.00;;;;;;5035943;28;20228;-79
2021/04/02 01:43:54;;;;;;;2.42;2.00;;;6.80;1.00;;;;;;5056160;28;20210;-77
2021/04/02 01:46:22;;;;;;;4.28;2.47;;;6.90;1.00;;;;;;5059994;28;20229;-78
2021/04/02 01:48:55;;;;;;;5.50;2.70;;;6.80;1.00;;;;;;5051385;28;20245;-77
2021/04/02 01:51:23;;;;;;;4.30;3.10;;;6.90;1.00;;;;;;5041862;28;20371;-79
2021/04/02 01:53:52;;;;;;;3.33;1.90;;;6.80;1.00;;;;;;5035612;28;20811;-80
2021/04/02 01:56:19;;;;;;;5.20;2.20;;;6.80;1.00;;;;;;5021680;28;20230;-79
2021/04/02 01:58:47;;;;;;;2.60;2.40;;;6.60;1.00;;;;;;5033741;28;20240;-82
2021/04/02 02:01:15;;;;;;;4.00;2.90;;;6.60;1.00;;;;;;5029026;28;20293;-82
2021/04/02 02:03:46;;;;;;;5.07;2.22;;;6.40;1.00;;;;;;5045981;28;20230;-79
2021/04/02 02:06:14;;;;;;;6.40;2.67;;;6.30;1.00;;;;;;5046867;28;20237;-82
2021/04/02 02:08:42;;;;;;;3.72;3.15;;;6.20;1.00;;;;;;5040261;28;20280;-79
2021/04/02 02:11:11;;;;;;;3.65;2.80;;;6.10;1.00;;;;;;5063332;28;20242;-78
2021/04/02 02:13:39;;;;;;;4.20;2.30;;;5.90;1.00;;;;;;5055747;28;20260;-79
2021/04/02 02:16:07;;;;;;;3.78;2.70;;;5.80;1.00;;;;;;5067245;27;20218;-78
2021/04/02 02:18:35;;;;;;;2.90;2.60;;;5.80;1.00;;;;;;5079592;27;20221;-78
2021/04/02 02:21:04;;;;;;;2.30;2.10;;;5.70;1.00;;;;;;5067676;27;20264;-79
2021/04/02 02:23:31;;;;;;;3.05;1.92;;;5.60;1.00;;;;;;5056095;28;20212;-78
2021/04/02 02:25:58;;;;;;;5.93;3.47;;;5.50;1.00;;;;;;5069703;27;20222;-78
2021/04/02 02:28:24;;;;;;;4.70;2.55;;;5.50;1.00;;;;;;5058236;27;20226;-78
2021/04/02 02:30:51;;;;;;;8.88;3.00;;;5.40;1.00;;;;;;5069618;27;20241;-79
2021/04/02 02:33:17;;;;;;;4.75;2.40;;;5.30;1.00;;;;;;5056608;28;20584;-78
2021/04/02 02:35:43;;;;;;;5.05;2.45;;;5.30;1.00;;;;;;5084088;27;20232;-77
2021/04/02 02:38:10;;;;;;;4.00;2.60;;;5.30;1.00;;;;;;5055708;28;20232;-78
2021/04/02 02:40:38;;;;;;;3.35;2.38;;;5.30;1.00;;;;;;5066061;28;20252;-78
2021/04/02 02:43:06;;;;;;;3.95;2.50;;;5.20;1.00;;;;;;5048044;28;20221;-78
2021/04/02 02:45:34;;;;;;;4.60;2.65;;;5.20;1.00;;;;;;5061382;28;20289;-79
2021/04/02 02:48:00;;;;;;;3.38;2.40;;;5.20;1.00;;;;;;5037683;28;20237;-80
2021/04/02 02:50:30;;;;;;;4.05;2.60;;;5.20;1.00;;;;;;5048393;28;20248;-79
2021/04/02 02:52:58;;;;;;;5.80;2.47;;;5.10;1.00;;;;;;5044419;28;20289;-79
2021/04/02 02:55:27;;;;;;;4.50;2.60;;;5.10;1.00;;;;;;5025587;28;20224;-78
2021/04/02 02:57:56;;;;;;;6.20;2.92;;;4.90;1.00;;;;;;5039392;28;20236;-80
2021/04/02 03:00:27;;;;;;;5.07;3.45;;;4.80;1.00;;;;;;5025215;28;20397;-79
2021/04/02 03:02:58;;;;;;;4.82;3.20;;;4.70;1.00;;;;;;5037126;28;20870;-79
2021/04/02 03:05:29;;;;;;;3.40;2.63;;;4.70;1.00;;;;;;5017071;28;20245;-81
2021/04/02 03:07:58;;;;;;;5.88;3.00;;;4.60;1.00;;;;;;5040358;28;20221;-82
2021/04/02 03:10:26;;;;;;;4.55;2.80;;;4.60;1.00;;;;;;5022146;28;20404;-82
2021/04/02 03:12:56;;;;;;;3.60;3.30;;;4.50;1.00;;;;;;5035557;28;20287;-80
2021/04/02 03:15:23;;;;;;;4.75;2.97;;;4.50;1.00;;;;;;5018024;28;20240;-82
2021/04/02 03:17:51;;;;;;;4.07;3.63;;;4.40;1.00;;;;;;5029551;28;20228;-81
2021/04/02 03:20:22;;;;;;;5.80;3.55;;;4.40;1.00;;;;;;5014503;28;20312;-81
2021/04/02 03:22:51;;;;;;;5.57;3.55;;;4.40;1.00;;;;;;5032159;28;21008;-82
2021/04/02 03:25:20;;;;;;;5.18;4.63;;;4.40;1.00;;;;;;5020719;28;20253;-79
2021/04/02 03:27:48;;;;;;;5.75;5.15;;;4.40;1.00;;;;;;5031766;28;20303;-81
2021/04/02 03:30:17;;;;;;;4.35;3.83;;;4.30;1.00;;;;;;5036610;28;20286;-80
2021/04/02 03:32:46;;;;;;;7.60;4.15;;;4.30;1.00;;;;;;5040342;28;20367;-80
2021/04/02 03:35:14;;;;;;;5.30;3.53;;;4.20;1.00;;;;;;5019263;28;20893;-82
2021/04/02 03:37:42;;;;;;;6.75;3.95;;;4.20;1.00;;;;;;5028459;28;20262;-81
2021/04/02 03:40:13;;;;;;;4.97;3.72;;;4.20;1.00;;;;;;5038326;28;20221;-82
2021/04/02 03:42:40;;;;;;;4.68;4.28;;;4.10;1.00;;;;;;5036469;28;20232;-82
2021/04/02 03:45:11;;;;;;;4.75;3.80;;;4.10;1.00;;;;;;5038043;28;20304;-78
2021/04/02 03:47:39;;;;;;;5.78;3.78;;;4.00;1.00;;;;;;5034621;28;20229;-79
2021/04/02 03:50:08;;;;;;;4.85;4.40;;;4.00;1.00;;;;;;5045059;28;20296;-79
2021/04/02 03:52:39;;;;;;;4.18;3.22;;;4.00;1.00;;;;;;5030401;28;20253;-81
2021/04/02 03:55:08;;;;;;;7.75;4.30;;;3.90;1.00;;;;;;5030788;28;21768;-80
2021/04/02 03:57:36;;;;;;;4.50;4.10;;;3.90;1.00;;;;;;5011711;28;20226;-79
2021/04/02 04:00:08;;;;;;;6.40;4.30;;;3.80;1.00;;;;;;5024629;28;20238;-80
2021/04/02 04:02:36;;;;;;;5.50;3.78;;;3.80;1.00;;;;;;5010818;28;20233;-79
2021/04/02 04:05:04;;;;;;;5.50;4.07;;;3.70;1.00;;;;;;5037098;28;21163;-79
2021/04/02 04:07:32;;;;;;;8.05;4.95;;;3.70;1.00;;;;;;5042064;28;20355;-78
2021/04/02 04:09:59;;;;;;;4.63;4.22;;;3.70;1.00;;;;;;5043623;28;20222;-79
2021/04/02 04:12:28;;;;;;;6.60;5.10;;;3.70;1.00;;;;;;5027409;28;20232;-82
2021/04/02 04:14:56;;;;;;;5.43;4.88;;;3.70;1.00;;;;;;5041553;28;20257;-82
2021/04/02 04:17:23;;;;;;;6.90;5.00;;;3.60;1.00;;;;;;5015339;28;20231;-77
2021/04/02 04:19:50;;;;;;;5.28;4.78;;;3.60;1.00;;;;;;5043132;28;20333;-79
2021/04/02 04:22:19;;;;;;;6.13;4.30;;;3.60;1.00;;;;;;5024273;28;20948;-82
2021/04/02 04:24:48;;;;;;;7.53;4.90;;;3.60;1.00;;;;;;5028993;28;20261;-79
2021/04/02 04:27:15;;;;;;;5.35;4.53;;;3.60;1.00;;;;;;5051749;28;20782;-80
2021/04/02 04:29:45;;;;;;;7.43;4.25;;;3.60;1.00;;;;;;5030143;28;20891;-79
2021/04/02 04:32:17;;;;;;;11.63;5.97;;;3.60;1.00;;;;;;5024341;28;22009;-79
2021/04/02 04:34:45;;;;;;;7.07;6.20;;;3.50;1.00;;;;;;5049142;28;20257;-81
2021/04/02 04:37:14;;;;;;;5.97;5.43;;;3.60;1.00;;;;;;5010180;28;20254;-80
2021/04/02 04:39:43;;;;;;;6.18;5.18;;;3.50;1.00;;;;;;5025747;28;20272;-80
2021/04/02 04:42:13;;;;;;;8.05;5.00;;;3.50;1.00;;;;;;5029212;28;20225;-79
2021/04/02 04:44:42;;;;;;;6.47;5.10;;;3.50;1.00;;;;;;5028464;28;20240;-81
2021/04/02 04:47:08;;;;;;;11.15;5.97;;;3.50;1.00;;;;;;5035896;28;20229;-83
2021/04/02 04:49:35;;;;;;;7.13;6.53;;;3.50;1.00;;;;;;5016441;28;20420;-81
2021/04/02 04:52:03;;;;;;;9.43;7.18;;;3.50;1.00;;;;;;5050225;28;20246;-82
2021/04/02 04:54:33;;;;;;;9.65;6.85;;;3.50;1.00;;;;;;5018771;28;20266;-80
2021/04/02 04:57:00;;;;;;;10.15;5.38;;;3.40;1.00;;;;;;5034416;28;20257;-81
2021/04/02 04:59:28;;;;;;;9.35;6.07;;;3.40;1.00;;;;;;5036658;28;20234;-82
2021/04/02 05:01:56;;;;;;;6.63;5.65;;;3.40;1.00;;;;;;5031789;28;20256;-82
2021/04/02 05:04:24;;;;;;;5.30;4.85;;;3.40;1.00;;;;;;5018008;28;20290;-81
2021/04/02 05:06:56;;;;;;;6.68;5.07;;;3.40;1.00;;;;;;5029409;28;20226;-80
2021/04/02 05:09:25;;;;;;;7.38;4.40;;;3.50;1.00;;;;;;5028834;28;20897;-79
2021/04/02 05:11:53;;;;;;;7.25;4.82;;;3.50;1.00;;;;;;5026111;28;20228;-78
2021/04/02 05:14:22;;;;;;;5.53;4.97;;;3.50;1.00;;;;;;5015983;28;20324;-78
2021/04/02 05:16:50;;;;;;;6.65;6.07;;;3.50;1.00;;;;;;5027561;28;20317;-79
2021/04/02 05:19:17;;;;;;;6.75;6.05;;;3.60;1.00;;;;;;5033641;28;20750;-79
2021/04/02 05:21:44;;;;;;;7.30;5.40;;;3.50;1.00;;;;;;5024682;28;20273;-82
2021/04/02 05:24:12;;;;;;;8.13;5.97;;;3.60;1.00;;;;;;5009653;28;20323;-80
2021/04/02 05:26:39;;;;;;;5.40;4.90;;;3.70;1.00;;;;;;5045952;28;20233;-81
2021/04/02 05:29:06;;;;;;;5.60;5.00;;;3.70;1.00;;;;;;5024996;28;21179;-78
2021/04/02 05:31:33;;;;;;;8.95;4.95;;;3.80;1.00;;;;;;5028445;28;20230;-79
2021/04/02 05:34:00;;;;;;;6.30;5.38;;;3.80;1.00;;;;;;5034793;28;20225;-80
2021/04/02 05:36:27;;;;;;;7.07;4.68;;;3.80;1.00;;;;;;5022389;28;20743;-81
2021/04/02 05:38:53;;;;;;;6.95;4.50;;;3.90;1.00;;;;;;5042312;27;20246;-78
2021/04/02 05:41:23;;;;;;;6.78;5.10;;;3.90;1.00;;;;;;5026373;28;20238;-78
2021/04/02 05:43:55;;;;;;;6.03;5.20;;;4.00;1.00;;;;;;5024571;28;20448;-80
2021/04/02 05:46:25;;;;;;;5.47;4.90;;;4.10;1.00;;;;;;5013838;28;20270;-78
2021/04/02 05:48:59;;;;;;;6.10;5.55;;;4.10;1.00;;;;;;5023465;28;20263;-80
2021/04/02 05:51:26;;;;;;;11.60;7.35;;;4.20;1.00;;;;;;5013950;28;20240;-81
2021/04/02 05:53:55;;;;;;;5.97;5.18;;;4.20;1.00;;;;;;5041414;28;20269;-81
2021/04/02 05:56:22;;;;;;;7.20;5.30;;;4.30;1.00;;;;;;5029847;28;20218;-80
2021/04/02 05:58:49;;;;;;;7.80;5.30;;;4.40;1.00;;;;;;5040352;28;20420;-80
2021/04/02 06:01:15;;;;;;;6.03;4.50;;;4.50;1.00;;;;;;5028806;28;20284;-79
2021/04/02 06:03:43;;;;;;;7.20;5.65;;;4.60;1.00;;;;;;5029102;28;20274;-81
2021/04/02 06:06:13;;;;;;;7.15;5.93;;;4.60;1.00;;;;;;5022937;28;20229;-79
2021/04/02 06:08:42;;;;;;;11.07;6.47;;;4.70;1.00;;;;;;5045648;28;21014;-80
2021/04/02 06:11:08;;;;;;;8.90;5.78;;;4.70;1.00;;;;;;5021615;28;20214;-79
2021/04/02 06:13:35;;;;;;;7.65;6.40;;;4.80;1.00;;;;;;5038294;28;20229;-78
2021/04/02 06:16:01;;;;;;;6.32;5.63;;;4.90;1.00;;;;;;5037461;28;20218;-79
2021/04/02 06:18:28;;;;;;;8.02;6.22;;;5.00;1.00;;;;;;5034013;28;20217;-79
2021/04/02 06:20:55;;;;;;;8.85;6.13;;;5.10;1.00;;;;;;5030524;28;20234;-80
2021/04/02 06:23:23;;;;;;;7.80;5.85;;;5.20;1.00;;;;;;5012855;28;20350;-81
2021/04/02 06:25:51;;;;;;;6.95;6.22;;;5.20;1.00;;;;;;5025868;28;20321;-79
2021/04/02 06:28:21;;;;;;;6.55;4.95;;;5.20;1.00;;;;;;5015714;28;20214;-79
2021/04/02 06:30:51;;;;;;;10.23;7.10;;;5.20;1.00;;;;;;5027009;28;20221;-80
2021/04/02 06:33:17;;;;;;;9.32;7.00;;;5.20;1.00;;;;;;5015441;28;20218;-81
2021/04/02 06:35:44;;;;;;;8.05;7.25;;;5.20;1.00;;;;;;5023368;28;20228;-80
2021/04/02 06:38:11;;;;;;;11.23;7.93;;;5.30;1.00;;;;;;5018073;28;20675;-79
2021/04/02 06:40:39;;;;;;;6.93;6.30;;;5.30;1.00;;;;;;5023279;28;21038;-80
2021/04/02 06:43:06;;;;;;;10.82;6.32;;;5.30;1.00;;;;;;5018521;28;20233;-79
2021/04/02 06:45:32;;;;;;;7.50;6.70;;;5.20;1.00;;;;;;5030981;28;20226;-80
2021/04/02 06:48:13;;;;;;;9.40;6.53;;;5.20;1.00;;;;;;5026699;28;20241;-80
2021/04/02 06:50:40;;;;;;;11.80;7.10;;;5.30;1.00;;;;;;5037891;28;20228;-79
2021/04/02 06:53:07;;;;;;;8.32;6.63;;;5.40;1.00;;;;;;5022214;28;21052;-79
2021/04/02 06:55:34;;;;;;;10.52;7.15;;;5.40;1.00;;;;;;5033883;28;21311;-80
2021/04/02 06:58:06;;;;;;;9.50;6.90;;;5.50;1.00;;;;;;5037224;28;20276;-79
2021/04/02 07:00:36;;;;;;;8.00;6.70;;;5.50;1.00;;;;;;5035191;28;20642;-79
2021/04/02 07:03:03;;;;;;;7.85;6.82;;;5.60;1.00;;;;;;5028124;28;20226;-78
2021/04/02 07:05:30;;;;;;;9.77;7.35;;;5.70;1.00;;;;;;5034208;28;20226;-83
2021/04/02 07:08:00;;;;;;;10.85;7.78;;;5.80;1.00;;;;;;5036742;28;20229;-78
2021/04/02 07:10:28;;;;;;;8.25;7.03;;;5.90;1.00;;;;;;5043201;28;20225;-78
2021/04/02 07:12:56;;;;;;;8.63;7.70;;;6.00;1.00;;;;;;5054924;28;20252;-82
2021/04/02 07:15:24;;;;;;;9.93;8.10;;;6.10;1.00;;;;;;5026422;28;21704;-79
2021/04/02 07:17:51;;;;;;;9.77;7.60;;;6.20;1.00;;;;;;5044872;28;21206;-80
2021/04/02 07:20:18;;;;;;;10.35;8.75;;;6.40;1.00;;;;;;5042659;28;20228;-83
2021/04/02 07:22:44;;;;;;;11.65;7.90;;;6.40;1.00;;;;;;5066786;28;20249;-80
2021/04/02 07:25:12;;;;;;;9.52;7.60;;;6.50;1.00;;;;;;5054562;28;20237;-80
2021/04/02 07:27:39;;;;;;;16.02;8.45;;;6.70;1.00;;;;;;5055205;28;20234;-80
2021/04/02 07:30:08;;;;;;;12.25;8.65;;;6.70;1.00;;;;;;5050912;28;20208;-81
2021/04/02 07:32:39;;;;;;;11.75;9.23;;;6.80;1.00;;;;;;5046410;28;20218;-80
2021/04/02 07:35:07;;;;;;;17.95;10.10;;;7.00;1.00;;;;;;5030910;28;21134;-80
2021/04/02 07:37:37;;;;;;;13.45;8.45;;;7.10;1.00;;;;;;5058083;28;20217;-81
2021/04/02 07:40:08;;;;;;;15.05;9.85;;;7.20;1.00;;;;;;5048364;28;20226;-80
2021/04/02 07:42:35;;;;;;;14.15;10.60;;;7.50;1.00;;;;;;5052507;28;20748;-83
2021/04/02 07:45:04;;;;;;;12.73;10.13;;;7.80;1.00;;;;;;5045576;28;20321;-83
2021/04/02 07:47:30;;;;;;;12.50;10.02;;;7.90;1.00;;;;;;5064617;28;20541;-83
2021/04/02 07:50:02;;;;;;;13.57;10.30;;;8.10;1.00;;;;;;5041339;28;20357;-83
2021/04/02 07:52:33;;;;;;;12.40;10.52;;;8.30;1.00;;;;;;5060609;28;20283;-83
2021/04/02 07:55:08;;;;;;;13.20;10.55;;;8.30;1.00;;;;;;5037257;28;23567;-82
2021/04/02 07:57:49;;;;;;;10.80;9.48;;;8.40;1.00;;;;;;5039847;28;21479;-83
2021/04/02 08:00:26;;;;;;;11.20;9.13;;;8.50;1.00;;;;;;5046111;28;22058;-83
2021/04/02 08:03:11;;;;;;;14.35;9.55;;;8.50;1.00;;;;;;5055356;28;20293;-80
2021/04/02 08:05:44;;;;;;;10.43;8.80;;;8.40;1.00;;;;;;5037889;28;20269;-79
2021/04/02 08:08:14;;;;;;;9.77;8.45;;;8.40;1.00;;;;;;5050731;28;20217;-80
2021/04/02 08:10:59;;;;;;;14.40;9.60;;;8.30;1.00;;;;;;5042905;28;20228;-85
2021/04/02 08:13:26;;;;;;;13.32;10.95;;;8.00;1.00;;;;;;5055388;28;20712;-83
2021/04/02 08:15:53;;;;;;;13.18;11.88;;;8.10;1.00;;;;;;5029854;28;20561;-81
2021/04/02 08:18:20;;;;;;;20.17;11.55;;;8.40;1.00;;;;;;5032811;28;21082;-81
2021/04/02 08:20:54;;;;;;;7.75;6.65;;;8.90;1.00;;;;;;5032475;28;20245;-77
2021/04/02 08:23:22;;;;;;;9.98;7.55;;;9.30;1.00;;;;;;5040840;28;21178;-81
2021/04/02 08:25:54;;;;;;;8.25;7.40;;;9.20;1.00;;;;;;5041734;28;20257;-79
2021/04/02 08:28:24;;;;;;;8.73;7.85;;;9.00;1.00;;;;;;5037287;28;20745;-79
2021/04/02 08:30:51;;;;;;;11.35;9.07;;;8.80;1.00;;;;;;5044321;28;20226;-81
2021/04/02 08:33:18;;;;;;;9.80;8.13;;;8.60;1.00;;;;;;5038664;28;20322;-80
2021/04/02 08:35:46;;;;;;;12.32;8.65;;;8.50;1.00;;;;;;5038545;28;20218;-82
2021/04/02 08:38:13;;;;;;;8.93;8.02;;;8.50;1.00;;;;;;5025631;28;20306;-79
2021/04/02 08:40:39;;;;;;;12.02;8.35;;;8.40;1.00;;;;;;5041066;28;20221;-81
2021/04/02 08:43:08;;;;;;;12.40;10.00;;;8.40;1.00;;;;;;5020679;28;20233;-78
2021/04/02 08:45:35;;;;;;;11.38;8.90;;;8.50;1.00;;;;;;5052551;28;20222;-80
2021/04/02 08:48:04;;;;;;;8.90;8.02;;;8.60;1.00;;;;;;5030713;28;20253;-81
2021/04/02 08:50:31;;;;;;;10.55;8.52;;;8.80;1.00;;;;;;5038918;28;20329;-79
2021/04/02 08:53:03;;;;;;;8.52;7.72;;;9.00;1.00;;;;;;5033323;28;20323;-80
2021/04/02 08:55:31;;;;;;;9.73;7.88;;;9.10;1.00;;;;;;5048952;28;20245;-78
2021/04/02 08:57:57;;;;;;;10.30;9.00;;;9.30;1.00;;;;;;5040169;28;20234;-80
2021/04/02 09:00:25;;;;;;;8.55;7.75;;;9.50;1.00;;;;;;5047608;28;20227;-80
2021/04/02 09:02:52;;;;;;;12.00;9.02;;;9.60;1.00;;;;;;5041315;28;20339;-80
2021/04/02 09:05:19;;;;;;;10.27;9.05;;;9.70;1.00;;;;;;5053392;28;20259;-80
2021/04/02 09:07:46;;;;;;;10.73;9.63;;;9.80;1.00;;;;;;5038366;28;20265;-78
2021/04/02 09:10:14;;;;;;;11.48;9.60;;;10.00;1.00;;;;;;5043302;28;20237;-80
2021/04/02 09:12:45;;;;;;;9.43;8.52;;;10.20;1.00;;;;;;5050347;28;20228;-80
2021/04/02 09:15:18;;;;;;;9.25;7.60;;;10.20;1.00;;;;;;5050113;28;20231;-77
2021/04/02 09:17:45;;;;;;;10.32;9.32;;;10.30;1.00;;;;;;5052119;28;20212;-79
2021/04/02 09:20:13;;;;;;;7.60;6.90;;;10.50;1.00;;;;;;5033659;28;20231;-80
2021/04/02 09:22:42;;;;;;;9.50;8.60;;;10.80;1.00;;;;;;5048717;28;20244;-80
2021/04/02 09:25:12;;;;;;;12.77;10.38;;;11.40;1.00;;;;;;5035774;28;20233;-79
2021/04/02 09:27:39;;;;;;;11.73;9.40;;;12.40;1.00;;;;;;5034867;28;20230;-79
2021/04/02 09:30:09;;;;;;;9.40;8.33;;;13.70;1.00;;;;;;5025857;28;20440;-80
2021/04/02 09:32:36;;;;;;;7.30;6.60;;;14.80;1.00;;;;;;5042012;28;20456;-81
2021/04/02 09:35:05;;;;;;;7.87;7.07;;;16.10;1.00;;;;;;5037837;28;20465;-81
2021/04/02 09:37:33;;;;;;;6.50;5.90;;;17.10;1.00;;;;;;5037860;28;20494;-79
2021/04/02 09:39:59;;;;;;;5.93;5.33;;;17.80;1.00;;;;;;5034357;28;20799;-77
2021/04/02 09:42:28;;;;;;;7.80;5.80;;;18.50;1.00;;;;;;5038466;28;21133;-78
2021/04/02 09:45:01;;;;;;;6.43;5.93;;;18.80;1.00;;;;;;5021796;28;21227;-80
2021/04/02 09:47:28;;;;;;;6.23;5.63;;;19.30;1.00;;;;;;5037382;28;20451;-80
2021/04/02 09:49:55;;;;;;;6.20;5.70;;;19.70;1.00;;;;;;5042629;28;20451;-83
2021/04/02 09:52:21;;;;;;;6.47;5.77;;;19.90;1.00;;;;;;5065056;28;20484;-86
2021/04/02 09:54:49;;;;;;;5.70;5.20;;;20.50;1.00;;;;;;5033436;28;20495;-78
2021/04/02 09:57:16;;;;;;;4.90;4.50;;;21.00;1.00;;;;;;5043371;28;20496;-77
2021/04/02 09:59:42;;;;;;;5.80;5.30;;;21.30;1.00;;;;;;5028238;28;20459;-81
2021/04/02 10:02:09;;;;;;;4.87;4.47;;;20.00;1.00;;;;;;5038042;28;20469;-81
2021/04/02 10:04:36;;;;;;;4.80;4.40;;;19.40;1.00;;;;;;5029954;28;20989;-83
2021/04/02 10:07:03;;;;;;;4.93;4.40;;;20.00;1.00;;;;;;5028121;28;20506;-83
2021/04/02 10:09:29;;;;;;;4.50;4.20;;;20.70;1.00;;;;;;5030762;28;20545;-82
2021/04/02 10:11:56;;;;;;;5.20;4.77;;;21.10;1.00;;;;;;5016142;28;20465;-82
2021/04/02 10:14:22;;;;;;;4.37;3.97;;;21.50;1.00;;;;;;5034799;28;20471;-83
2021/04/02 10:16:49;;;;;;;3.40;2.50;;;21.30;1.00;;;;;;5026529;28;20466;-84
2021/04/02 10:19:16;;;;;;;2.70;2.33;;;21.10;1.00;;;;;;5036470;28;20405;-83
2021/04/02 10:21:43;;;;;;;3.73;2.70;;;21.20;1.00;;;;;;5029485;28;24006;-83
2021/04/02 10:24:10;;;;;;;5.30;3.60;;;21.80;1.00;;;;;;5032912;28;20510;-82
2021/04/02 10:26:37;;;;;;;4.53;3.27;;;21.80;1.00;;;;;;5029855;28;20450;-85
2021/04/02 10:29:03;;;;;;;2.83;2.63;;;21.80;1.00;;;;;;5037048;28;20451;-83
2021/04/02 10:31:30;;;;;;;2.20;1.80;;;22.00;1.00;;;;;;5038178;28;20448;-86
2021/04/02 10:33:57;;;;;;;3.23;2.30;;;21.70;1.00;;;;;;5048602;28;20589;-84
2021/04/02 10:36:26;;;;;;;3.63;2.63;;;21.90;1.00;;;;;;5043001;28;20498;-85
2021/04/02 10:38:58;;;;;;;2.20;2.00;;;22.80;1.00;;;;;;5049589;28;21248;-83
2021/04/02 10:41:24;;;;;;;2.53;1.90;;;23.30;1.00;;;;;;5038185;28;20436;-84
2021/04/02 10:43:51;;;;;;;1.80;1.70;;;23.40;1.00;;;;;;5053641;28;20453;-85
2021/04/02 10:46:18;;;;;;;1.97;1.60;;;23.90;1.00;;;;;;5057929;28;20516;-84
2021/04/02 10:48:44;;;;;;;3.80;2.47;;;24.70;1.00;;;;;;5053025;28;20445;-82
2021/04/02 10:51:11;;;;;;;1.60;1.50;;;24.80;1.00;;;;;;5054104;28;20448;-81
2021/04/02 10:53:37;;;;;;;2.50;1.67;;;24.90;1.00;;;;;;5042843;28;20459;-82
2021/04/02 10:56:05;;;;;;;7.17;5.70;;;25.10;1.00;;;;;;5067990;28;20463;-81
2021/04/02 10:58:33;;;;;;;2.17;1.40;;;25.40;1.00;;;;;;5044487;28;20445;-80
2021/04/02 11:00:59;;;;;;;2.03;1.83;;;25.80;1.00;;;;;;5042640;28;20493;-80
2021/04/02 11:03:26;;;;;;;5.10;2.20;;;25.60;1.00;;;;;;5033264;28;20467;-81
2021/04/02 11:05:52;;;;;;;2.90;2.23;;;25.30;1.00;;;;;;5054931;28;20475;-77
2021/04/02 11:08:18;;;;;;;2.80;2.10;;;25.60;1.00;;;;;;5026444;28;20466;-78
2021/04/02 11:10:45;;;;;;;2.10;1.90;;;26.10;1.00;;;;;;5025413;28;20454;-78
2021/04/02 11:13:12;;;;;;;2.67;2.10;;;26.40;1.00;;;;;;5020727;28;20458;-79
2021/04/02 11:15:38;;;;;;;2.80;2.50;;;26.50;1.00;;;;;;5032623;28;20424;-77
2021/04/02 11:18:04;;;;;;;2.20;2.00;;;26.00;1.00;;;;;;5019706;28;20521;-79
2021/04/02 11:20:31;;;;;;;2.40;1.90;;;26.20;1.00;;;;;;5030773;28;20467;-77
2021/04/02 11:22:57;;;;;;;3.67;3.37;;;26.50;1.00;;;;;;5020782;28;20968;-79
2021/04/02 11:25:24;;;;;;;2.63;2.43;;;26.60;1.00;;;;;;5037778;28;20456;-79
2021/04/02 11:27:52;;;;;;;2.67;2.47;;;26.70;1.00;;;;;;5033892;28;21022;-79
2021/04/02 11:30:21;;;;;;;2.30;2.00;;;26.80;1.00;;;;;;5024111;28;20466;-77
2021/04/02 11:32:47;;;;;;;3.07;2.77;;;26.20;1.00;;;;;;5033769;28;21317;-78
2021/04/02 11:35:15;;;;;;;2.67;2.30;;;25.20;1.00;;;;;;5021963;28;20700;-77
2021/04/02 11:37:41;;;;;;;2.70;2.50;;;24.10;1.00;;;;;;5049417;28;20453;-76
2021/04/02 11:40:10;;;;;;;4.30;2.50;;;24.20;1.00;;;;;;5024023;28;20477;-77
2021/04/02 11:42:36;;;;;;;2.60;2.40;;;24.80;1.00;;;;;;5035604;28;20454;-77
2021/04/02 11:45:06;;;;;;;3.00;2.70;;;25.80;1.00;;;;;;5028560;28;20445;-78
2021/04/02 11:47:33;;;;;;;2.37;2.17;;;26.20;1.00;;;;;;5042976;28;20434;-77
2021/04/02 11:50:00;;;;;;;4.67;2.80;;;26.80;1.00;;;;;;5050595;28;20547;-79
2021/04/02 11:52:26;;;;;;;3.50;2.40;;;27.30;1.00;;;;;;5055880;28;20418;-78
2021/04/02 11:54:52;;;;;;;2.33;2.00;;;27.00;1.00;;;;;;5045831;28;20463;-80
2021/04/02 11:57:19;;;;;;;3.00;2.60;;;26.90;1.00;;;;;;5059266;28;20432;-80
2021/04/02 11:59:45;;;;;;;3.47;2.27;;;26.90;1.00;;;;;;5043344;28;20460;-81
2021/04/02 12:02:12;;;;;;;2.87;2.60;;;26.40;1.00;;;;;;5058229;28;20492;-78
2021/04/02 12:04:39;;;;;;;3.00;2.80;;;26.00;1.00;;;;;;5050558;28;20422;-79
2021/04/02 12:07:06;;;;;;;5.53;3.50;;;26.20;1.00;;;;;;5060672;28;20393;-79
2021/04/02 12:09:32;;;;;;;3.57;2.27;;;25.40;1.00;;;;;;5061093;28;20427;-79
2021/04/02 12:11:58;;;;;;;2.50;2.10;;;24.10;1.00;;;;;;5041547;28;20425;-80
2021/04/02 12:14:25;;;;;;;5.20;4.80;;;23.20;1.00;;;;;;5062220;28;20478;-79
2021/04/02 12:16:51;;;;;;;3.17;2.87;;;23.30;1.00;;;;;;5057051;28;20467;-79
2021/04/02 12:19:17;;;;;;;3.43;2.13;;;22.60;1.00;;;;;;5055659;28;20574;-79
2021/04/02 12:21:45;;;;;;;2.30;1.93;;;21.70;1.00;;;;;;5061493;28;20987;-79
2021/04/02 12:24:11;;;;;;;2.87;1.63;;;22.20;1.00;;;;;;5052387;28;20411;-79
2021/04/02 12:26:38;;;;;;;2.70;2.13;;;23.50;1.00;;;;;;5057857;28;20465;-79
2021/04/02 12:29:05;;;;;;;2.60;1.53;;;25.10;1.00;;;;;;5061808;28;20444;-81
2021/04/02 12:31:31;;;;;;;2.40;1.87;;;25.40;1.00;;;;;;5056140;28;20423;-79
2021/04/02 12:33:57;;;;;;;2.00;1.53;;;25.00;1.00;;;;;;5058463;28;20416;-80
2021/04/02 12:36:24;;;;;;;2.43;1.57;;;25.40;1.00;;;;;;5045920;28;20429;-80
2021/04/02 12:38:51;;;;;;;2.03;1.57;;;26.00;1.00;;;;;;5051173;28;20496;-77
2021/04/02 12:41:17;;;;;;;1.73;1.40;;;26.50;1.00;;;;;;5049537;28;20430;-79
2021/04/02 12:43:43;;;;;;;1.33;1.23;;;26.40;1.00;;;;;;5044409;28;21839;-80
2021/04/02 12:46:10;;;;;;;1.63;1.50;;;26.70;1.00;;;;;;5029041;28;20436;-80
2021/04/02 12:48:36;;;;;;;2.60;1.43;;;26.60;1.00;;;;;;5033437;28;20457;-78
2021/04/02 12:51:03;;;;;;;1.70;1.60;;;25.50;1.00;;;;;;5027113;28;20474;-78
2021/04/02 12:53:30;;;;;;;1.80;1.30;;;24.90;1.00;;;;;;5023553;28;20603;-79
2021/04/02 12:56:00;;;;;;;1.30;1.20;;;24.70;1.00;;;;;;5038381;28;21189;-79
2021/04/02 12:58:27;;;;;;;1.87;1.50;;;22.70;1.00;;;;;;5019190;28;20536;-80
2021/04/02 13:00:53;;;;;;;2.53;1.87;;;21.40;1.00;;;;;;5031528;28;20467;-80
2021/04/02 13:03:20;;;;;;;1.77;1.47;;;21.70;1.00;;;;;;5014846;28;20500;-80
2021/04/02 13:05:46;;;;;;;2.80;1.77;;;21.60;1.00;;;;;;5043738;28;20488;-79
2021/04/02 13:08:13;;;;;;;1.30;1.20;;;22.40;1.00;;;;;;5026019;28;20541;-80